createdAt,value
2017-06-24T00:00:41.979Z,7.70
2017-06-24T00:03:10.069Z,7.20
2017-06-24T00:05:38.126Z,8.30
2017-06-24T00:08:06.175Z,8.53
2017-06-24T00:10:34.271Z,8.00
2017-06-24T00:13:02.315Z,7.17
2017-06-24T00:15:30.379Z,7.10
2017-06-24T00:17:58.457Z,7.17
2017-06-24T00:20:26.523Z,7.27
2017-06-24T00:22:54.600Z,7.67
2017-06-24T00:25:22.694Z,7.37
2017-06-24T00:27:50.738Z,6.70
2017-06-24T00:30:18.792Z,6.80
2017-06-24T00:32:46.858Z,6.30
2017-06-24T00:35:14.927Z,6.17
2017-06-24T00:37:42.998Z,7.30
2017-06-24T00:40:11.071Z,6.60
2017-06-24T00:42:39.131Z,5.53
2017-06-24T00:45:07.212Z,5.20
2017-06-24T00:47:35.274Z,6.07
2017-06-24T00:50:03.334Z,6.33
2017-06-24T00:52:31.975Z,5.53
2017-06-24T00:55:00.031Z,5.90
2017-06-24T00:57:28.079Z,6.33
2017-06-24T00:59:56.156Z,5.47
2017-06-24T01:02:24.215Z,6.17
2017-06-24T01:04:52.267Z,5.67
2017-06-24T01:07:20.360Z,5.80
2017-06-24T01:09:48.411Z,5.17
2017-06-24T01:12:16.484Z,5.27
2017-06-24T01:14:44.551Z,5.30
2017-06-24T01:17:12.620Z,5.70
2017-06-24T01:19:40.674Z,5.50
2017-06-24T01:22:09.499Z,5.43
2017-06-24T01:24:37.646Z,5.50
2017-06-24T01:27:05.703Z,5.30
2017-06-24T01:29:33.746Z,4.80
2017-06-24T01:32:02.583Z,5.40
2017-06-24T01:34:30.663Z,4.07
2017-06-24T01:36:58.716Z,5.00
2017-06-24T01:39:26.774Z,4.67
2017-06-24T01:41:54.844Z,4.83
2017-06-24T01:44:22.920Z,4.70
2017-06-24T01:46:50.976Z,5.00
2017-06-24T01:49:19.055Z,4.70
2017-06-24T01:51:47.102Z,4.97
2017-06-24T01:54:15.927Z,4.17
2017-06-24T01:56:44.003Z,4.17
2017-06-24T01:59:12.075Z,4.63
2017-06-24T02:01:40.158Z,4.73
2017-06-24T02:04:08.211Z,4.90
2017-06-24T02:06:36.275Z,5.17
2017-06-24T02:09:04.346Z,5.07
2017-06-24T02:11:33.543Z,4.37
2017-06-24T02:14:01.640Z,4.80
2017-06-24T02:16:29.682Z,4.53
2017-06-24T02:18:57.732Z,3.80
2017-06-24T02:21:26.561Z,4.00
2017-06-24T02:23:54.626Z,4.00
2017-06-24T02:26:23.423Z,4.07
2017-06-24T02:28:51.482Z,4.00
2017-06-24T02:31:20.792Z,4.67
2017-06-24T02:33:49.835Z,4.10
2017-06-24T02:36:17.894Z,4.83
2017-06-24T02:38:45.955Z,4.37
2017-06-24T02:41:14.030Z,4.57
2017-06-24T02:43:42.427Z,4.00
2017-06-24T02:46:10.483Z,4.13
2017-06-24T02:48:38.604Z,4.50
2017-06-24T02:51:06.655Z,4.33
2017-06-24T02:53:34.712Z,4.13
2017-06-24T02:56:02.783Z,4.23
2017-06-24T02:58:30.855Z,4.30
2017-06-24T03:00:58.951Z,4.67
2017-06-24T03:03:26.999Z,4.30
2017-06-24T03:05:55.058Z,4.40
2017-06-24T03:08:23.113Z,4.40
2017-06-24T03:10:51.182Z,4.43
2017-06-24T03:13:19.270Z,4.53
2017-06-24T03:15:47.330Z,4.20
2017-06-24T03:18:15.381Z,4.40
2017-06-24T03:20:43.447Z,4.57
2017-06-24T03:23:11.514Z,4.57
2017-06-24T03:25:39.554Z,4.23
2017-06-24T03:28:07.652Z,5.10
2017-06-24T03:30:36.470Z,4.67
2017-06-24T03:33:04.539Z,3.87
2017-06-24T03:35:33.387Z,4.70
2017-06-24T03:38:01.466Z,3.83
2017-06-24T03:40:29.523Z,4.43
2017-06-24T03:42:57.588Z,4.30
2017-06-24T03:45:25.667Z,5.10
2017-06-24T03:47:53.766Z,4.30
2017-06-24T03:50:22.600Z,4.47
2017-06-24T03:52:50.663Z,3.83
2017-06-24T03:55:18.726Z,4.53
2017-06-24T03:57:46.802Z,4.63
2017-06-24T04:00:14.856Z,3.80
2017-06-24T04:02:42.915Z,3.90
2017-06-24T04:05:11.810Z,4.60
2017-06-24T04:07:40.764Z,4.13
2017-06-24T04:10:08.827Z,4.20
2017-06-24T04:12:36.885Z,3.60
2017-06-24T04:15:04.947Z,5.00
2017-06-24T04:17:33.039Z,4.47
2017-06-24T04:20:01.083Z,4.20
2017-06-24T04:22:29.130Z,3.73
2017-06-24T04:24:57.968Z,3.93
2017-06-24T04:27:26.032Z,3.80
2017-06-24T04:29:54.116Z,3.67
2017-06-24T04:32:22.180Z,4.07
2017-06-24T04:34:50.259Z,3.43
2017-06-24T04:37:18.321Z,3.63
2017-06-24T04:39:46.387Z,4.43
2017-06-24T04:42:14.456Z,4.03
2017-06-24T04:44:42.502Z,3.90
2017-06-24T04:47:10.598Z,3.80
2017-06-24T04:49:38.672Z,4.50
2017-06-24T04:52:06.786Z,3.90
2017-06-24T04:54:34.827Z,4.40
2017-06-24T04:57:02.899Z,4.20
2017-06-24T04:59:31.727Z,3.80
2017-06-24T05:01:59.790Z,4.50
2017-06-24T05:04:27.862Z,4.40
2017-06-24T05:06:55.920Z,3.90
2017-06-24T05:09:24.744Z,4.13
2017-06-24T05:11:52.826Z,3.70
2017-06-24T05:14:20.872Z,4.10
2017-06-24T05:16:48.935Z,3.70
2017-06-24T05:19:17.015Z,4.30
2017-06-24T05:21:45.078Z,4.50
2017-06-24T05:24:13.133Z,4.37
2017-06-24T05:26:41.966Z,3.60
2017-06-24T05:29:10.026Z,3.47
2017-06-24T05:31:38.103Z,4.23
2017-06-24T05:34:06.190Z,4.10
2017-06-24T05:36:35.030Z,3.90
2017-06-24T05:39:03.104Z,4.67
2017-06-24T05:41:31.159Z,4.30
2017-06-24T05:43:59.232Z,4.50
2017-06-24T05:46:27.314Z,5.30
2017-06-24T05:48:55.381Z,4.37
2017-06-24T05:51:23.463Z,4.60
2017-06-24T05:53:51.530Z,4.87
2017-06-24T05:56:19.588Z,4.47
2017-06-24T05:58:47.782Z,5.40
2017-06-24T06:01:15.880Z,6.07
2017-06-24T06:03:44.735Z,4.20
2017-06-24T06:06:12.839Z,4.00
2017-06-24T06:08:40.919Z,4.27
2017-06-24T06:11:09.746Z,5.23
2017-06-24T06:13:37.813Z,4.63
2017-06-24T06:16:05.883Z,4.60
2017-06-24T06:18:33.951Z,4.20
2017-06-24T06:21:02.047Z,3.60
2017-06-24T06:23:30.123Z,4.73
2017-06-24T06:25:58.210Z,4.90
2017-06-24T06:28:26.254Z,4.70
2017-06-24T06:30:54.330Z,5.03
2017-06-24T06:33:22.411Z,5.20
2017-06-24T06:35:50.462Z,4.97
2017-06-24T06:38:18.537Z,5.80
2017-06-24T06:40:46.582Z,5.60
2017-06-24T06:43:15.447Z,5.70
2017-06-24T06:45:43.491Z,5.00
2017-06-24T06:48:11.583Z,4.93
2017-06-24T06:50:39.642Z,4.77
2017-06-24T06:53:07.710Z,4.80
2017-06-24T06:55:35.771Z,4.83
2017-06-24T06:58:03.826Z,4.43
2017-06-24T07:00:31.912Z,4.27
2017-06-24T07:02:59.974Z,4.37
2017-06-24T07:05:28.023Z,4.20
2017-06-24T07:07:56.943Z,4.57
2017-06-24T07:10:25.012Z,4.10
2017-06-24T07:12:53.055Z,4.50
2017-06-24T07:15:21.904Z,3.53
2017-06-24T07:17:49.949Z,4.00
2017-06-24T07:20:18.023Z,3.70
2017-06-24T07:22:46.086Z,4.27
2017-06-24T07:25:14.155Z,5.50
2017-06-24T07:27:42.223Z,4.10
2017-06-24T07:30:10.286Z,3.87
2017-06-24T07:32:38.638Z,3.63
2017-06-24T07:35:06.724Z,4.03
2017-06-24T07:37:34.781Z,3.97
2017-06-24T07:40:02.823Z,3.67
2017-06-24T07:42:30.900Z,3.73
2017-06-24T07:44:58.959Z,3.80
2017-06-24T07:47:27.028Z,3.47
2017-06-24T07:49:55.108Z,4.47
2017-06-24T07:52:23.174Z,3.50
2017-06-24T07:54:51.244Z,3.33
2017-06-24T07:57:19.323Z,3.67
2017-06-24T07:59:47.391Z,3.60
2017-06-24T08:02:15.437Z,3.40
2017-06-24T08:04:44.282Z,3.70
2017-06-24T08:07:12.371Z,3.70
2017-06-24T08:09:40.432Z,4.10
2017-06-24T08:12:08.488Z,3.47
2017-06-24T08:14:36.564Z,3.43
2017-06-24T08:17:04.618Z,3.80
2017-06-24T08:19:32.694Z,3.70
2017-06-24T08:22:00.770Z,3.80
2017-06-24T08:24:28.835Z,3.80
2017-06-24T08:26:56.986Z,4.20
2017-06-24T08:29:25.823Z,3.70
2017-06-24T08:31:53.880Z,4.00
2017-06-24T08:34:21.936Z,4.07
2017-06-24T08:36:50.015Z,3.50
2017-06-24T08:39:18.073Z,3.93
2017-06-24T08:41:47.543Z,3.70
2017-06-24T08:44:15.591Z,4.03
2017-06-24T08:46:44.171Z,4.10
2017-06-24T08:49:12.260Z,3.70
2017-06-24T08:51:40.312Z,3.90
2017-06-24T08:54:08.381Z,3.97
2017-06-24T08:56:36.467Z,4.10
2017-06-24T08:59:04.523Z,3.77
2017-06-24T09:01:32.579Z,4.00
2017-06-24T09:04:00.686Z,4.10
2017-06-24T09:06:28.748Z,4.40
2017-06-24T09:08:56.820Z,3.70
2017-06-24T09:11:24.895Z,4.33
2017-06-24T09:13:52.962Z,4.03
2017-06-24T09:16:21.020Z,3.70
2017-06-24T09:18:49.197Z,3.37
2017-06-24T09:21:17.266Z,3.63
2017-06-24T09:23:45.323Z,3.30
2017-06-24T09:26:13.402Z,3.63
2017-06-24T09:28:41.512Z,3.93
2017-06-24T09:31:09.598Z,3.70
2017-06-24T09:33:38.438Z,4.37
2017-06-24T09:36:06.859Z,7.53
2017-06-24T09:38:34.900Z,3.33
2017-06-24T09:41:03.528Z,3.80
2017-06-24T09:43:31.570Z,3.17
2017-06-24T09:46:00.403Z,4.03
2017-06-24T09:48:28.478Z,3.73
2017-06-24T09:50:56.626Z,3.80
2017-06-24T09:53:24.703Z,3.53
2017-06-24T09:55:52.795Z,3.43
2017-06-24T09:58:20.855Z,3.70
2017-06-24T10:00:48.915Z,4.10
2017-06-24T10:03:16.967Z,3.90
2017-06-24T10:05:45.040Z,3.53
2017-06-24T10:08:13.098Z,4.73
2017-06-24T10:10:41.930Z,4.10
2017-06-24T10:13:10.006Z,4.17
2017-06-24T10:15:38.106Z,3.80
2017-06-24T10:18:06.184Z,4.50
2017-06-24T10:20:34.247Z,3.57
2017-06-24T10:23:02.299Z,4.03
2017-06-24T10:25:30.379Z,4.40
2017-06-24T10:27:58.459Z,4.10
2017-06-24T10:30:26.519Z,4.13
2017-06-24T10:32:54.602Z,4.37
2017-06-24T10:35:22.650Z,4.57
2017-06-24T10:37:50.719Z,4.53
2017-06-24T10:40:18.784Z,4.27
2017-06-24T10:42:46.885Z,4.03
2017-06-24T10:45:14.951Z,4.27
2017-06-24T10:47:43.033Z,4.00
2017-06-24T10:50:11.104Z,4.50
2017-06-24T10:52:39.172Z,4.40
2017-06-24T10:55:07.250Z,4.47
2017-06-24T10:57:35.348Z,4.10
2017-06-24T11:00:03.410Z,3.97
2017-06-24T11:02:32.254Z,4.50
2017-06-24T11:05:00.321Z,4.47
2017-06-24T11:07:28.378Z,4.67
2017-06-24T11:09:56.442Z,3.80
2017-06-24T11:12:25.431Z,4.33
2017-06-24T11:14:53.463Z,4.47
2017-06-24T11:17:22.305Z,4.53
2017-06-24T11:19:50.371Z,4.13
2017-06-24T11:22:18.469Z,4.97
2017-06-24T11:24:46.516Z,4.40
2017-06-24T11:27:14.582Z,3.70
2017-06-24T11:29:42.655Z,4.30
2017-06-24T11:32:10.723Z,4.17
2017-06-24T11:34:38.895Z,4.00
2017-06-24T11:37:06.968Z,4.10
2017-06-24T11:39:35.049Z,4.30
2017-06-24T11:42:03.102Z,4.07
2017-06-24T11:44:31.155Z,4.40
2017-06-24T11:46:59.214Z,4.07
2017-06-24T11:49:27.288Z,3.90
2017-06-24T11:51:55.351Z,4.20
2017-06-24T11:54:23.416Z,5.53
2017-06-24T11:56:51.515Z,4.77
2017-06-24T11:59:19.582Z,4.33
2017-06-24T12:01:47.635Z,4.30
2017-06-24T12:04:15.707Z,4.97
2017-06-24T12:06:43.771Z,4.70
2017-06-24T12:09:11.835Z,4.10
2017-06-24T12:11:39.919Z,4.23
2017-06-24T12:14:07.982Z,4.03
2017-06-24T12:16:36.052Z,4.33
2017-06-24T12:19:04.119Z,5.10
2017-06-24T12:21:32.175Z,3.50
2017-06-24T12:24:01.131Z,3.70
2017-06-24T12:26:29.179Z,3.50
2017-06-24T12:28:57.270Z,4.30
2017-06-24T12:31:25.351Z,3.73
2017-06-24T12:33:53.414Z,4.37
2017-06-24T12:36:21.486Z,3.57
2017-06-24T12:38:49.631Z,3.47
2017-06-24T12:41:17.683Z,4.00
2017-06-24T12:43:46.515Z,3.80
2017-06-24T12:46:14.593Z,3.90
2017-06-24T12:48:42.663Z,4.67
2017-06-24T12:51:10.723Z,4.40
2017-06-24T12:53:38.802Z,4.10
2017-06-24T12:56:06.868Z,5.20
2017-06-24T12:58:34.923Z,4.23
2017-06-24T13:01:03.004Z,4.50
2017-06-24T13:03:31.080Z,4.10
2017-06-24T13:05:59.119Z,4.03
2017-06-24T13:08:27.230Z,4.60
2017-06-24T13:10:55.277Z,4.13
2017-06-24T13:13:23.324Z,4.50
2017-06-24T13:15:51.410Z,3.90
2017-06-24T13:18:19.483Z,4.37
2017-06-24T13:20:47.554Z,4.40
2017-06-24T13:23:15.636Z,4.60
2017-06-24T13:25:43.718Z,4.70
2017-06-24T13:28:11.775Z,4.10
2017-06-24T13:30:39.839Z,4.90
2017-06-24T13:33:07.902Z,4.70
2017-06-24T13:35:35.991Z,4.00
2017-06-24T13:38:04.050Z,5.40
2017-06-24T13:40:32.102Z,4.70
2017-06-24T13:43:00.183Z,4.97
2017-06-24T13:45:28.248Z,4.67
2017-06-24T13:47:56.300Z,5.20
2017-06-24T13:50:24.387Z,5.47
2017-06-24T13:52:52.461Z,5.57
2017-06-24T13:55:20.524Z,4.70
2017-06-24T13:57:48.609Z,5.13
2017-06-24T14:00:16.674Z,5.60
2017-06-24T14:02:44.743Z,5.00
2017-06-24T14:05:13.671Z,5.00
2017-06-24T14:07:41.755Z,5.27
2017-06-24T14:10:09.823Z,5.10
2017-06-24T14:12:37.895Z,4.63
2017-06-24T14:15:05.939Z,4.50
2017-06-24T14:17:34.028Z,5.30
2017-06-24T14:20:02.107Z,4.80
2017-06-24T14:22:30.155Z,5.20
2017-06-24T14:24:58.239Z,5.43
2017-06-24T14:27:26.303Z,5.20
2017-06-24T14:29:54.389Z,5.40
2017-06-24T14:32:22.456Z,5.87
2017-06-24T14:34:50.506Z,5.73
2017-06-24T14:37:18.567Z,6.87
2017-06-24T14:39:46.642Z,6.90
2017-06-24T14:42:14.710Z,7.63
2017-06-24T14:44:42.798Z,7.47
2017-06-24T14:47:11.615Z,8.73
2017-06-24T14:49:39.662Z,8.10
2017-06-24T14:52:08.370Z,8.17
2017-06-24T14:54:36.435Z,8.20
2017-06-24T14:57:04.512Z,9.37
2017-06-24T14:59:32.595Z,7.60
2017-06-24T15:02:00.655Z,8.30
2017-06-24T15:04:28.720Z,7.17
2017-06-24T15:06:56.827Z,6.87
2017-06-24T15:09:24.883Z,7.70
2017-06-24T15:11:53.513Z,7.80
2017-06-24T15:14:22.395Z,7.50
2017-06-24T15:16:50.483Z,8.20
2017-06-24T15:19:19.323Z,7.60
2017-06-24T15:21:47.400Z,7.73
2017-06-24T15:24:15.468Z,9.00
2017-06-24T15:26:43.562Z,9.70
2017-06-24T15:29:11.698Z,9.07
2017-06-24T15:31:39.768Z,7.80
2017-06-24T15:34:07.824Z,7.60
2017-06-24T15:36:35.870Z,7.60
2017-06-24T15:39:04.712Z,8.00
2017-06-24T15:41:32.825Z,7.73
2017-06-24T15:44:00.852Z,7.23
2017-06-24T15:46:28.932Z,7.60
2017-06-24T15:48:57.008Z,8.20
2017-06-24T15:51:25.060Z,7.67
2017-06-24T15:53:53.132Z,8.70
2017-06-24T15:56:21.208Z,8.03
2017-06-24T15:58:49.251Z,7.87
2017-06-24T16:01:18.093Z,8.67
2017-06-24T16:03:46.175Z,8.13
2017-06-24T16:06:14.265Z,9.23
2017-06-24T16:08:43.184Z,8.53
2017-06-24T16:11:12.041Z,9.10
2017-06-24T16:13:40.107Z,7.93
2017-06-24T16:16:08.163Z,8.73
2017-06-24T16:18:36.241Z,7.63
2017-06-24T16:21:04.307Z,8.43
2017-06-24T16:23:32.395Z,8.03
2017-06-24T16:26:00.464Z,9.47
2017-06-24T16:28:28.530Z,10.50
2017-06-24T16:30:56.611Z,11.57
2017-06-24T16:33:24.679Z,10.93
2017-06-24T16:35:52.743Z,10.37
2017-06-24T16:38:20.835Z,11.27
2017-06-24T16:40:51.065Z,10.67
2017-06-24T16:43:19.118Z,11.03
2017-06-24T16:45:47.984Z,11.00
2017-06-24T16:48:16.058Z,10.07
2017-06-24T16:50:44.122Z,10.00
2017-06-24T16:53:12.204Z,9.30
2017-06-24T16:55:40.268Z,9.60
2017-06-24T16:58:08.314Z,9.57
2017-06-24T17:00:36.411Z,10.20
2017-06-24T17:03:04.457Z,8.83
2017-06-24T17:05:32.518Z,9.33
2017-06-24T17:08:00.608Z,9.73
2017-06-24T17:10:28.666Z,9.00
2017-06-24T17:12:56.736Z,9.40
2017-06-24T17:15:24.795Z,8.60
2017-06-24T17:17:52.878Z,9.80
2017-06-24T17:20:20.976Z,9.40
2017-06-24T17:22:49.059Z,9.33
2017-06-24T17:25:17.135Z,9.23
2017-06-24T17:27:45.178Z,9.63
2017-06-24T17:30:13.241Z,8.80
2017-06-24T17:32:41.326Z,8.50
2017-06-24T17:35:09.386Z,8.23
2017-06-24T17:37:37.427Z,7.70
2017-06-24T17:40:05.520Z,8.33
2017-06-24T17:42:33.589Z,8.57
2017-06-24T17:45:01.655Z,7.90
2017-06-24T17:47:29.715Z,7.80
2017-06-24T17:49:57.778Z,7.70
2017-06-24T17:52:25.868Z,8.23
2017-06-24T17:54:53.952Z,7.10
2017-06-24T17:57:22.006Z,7.60
2017-06-24T17:59:50.079Z,6.87
2017-06-24T18:02:18.159Z,7.83
2017-06-24T18:04:46.247Z,7.50
2017-06-24T18:07:14.318Z,7.13
2017-06-24T18:09:42.398Z,8.00
2017-06-24T18:12:10.466Z,7.70
2017-06-24T18:14:38.531Z,8.10
2017-06-24T18:17:06.623Z,7.73
2017-06-24T18:19:34.695Z,6.93
2017-06-24T18:22:03.530Z,6.27
2017-06-24T18:24:31.636Z,6.33
2017-06-24T18:26:59.715Z,6.30
2017-06-24T18:29:27.775Z,6.60
2017-06-24T18:31:56.667Z,5.77
2017-06-24T18:34:24.808Z,6.20
2017-06-24T18:36:53.201Z,5.80
2017-06-24T18:39:21.303Z,6.10
2017-06-24T18:41:49.353Z,6.67
2017-06-24T18:44:17.411Z,7.73
2017-06-24T18:46:45.493Z,7.63
2017-06-24T18:49:13.544Z,8.03
2017-06-24T18:51:41.616Z,8.17
2017-06-24T18:54:09.691Z,7.40
2017-06-24T18:56:37.744Z,8.53
2017-06-24T18:59:05.833Z,10.53
2017-06-24T19:01:33.904Z,11.10
2017-06-24T19:04:01.983Z,11.63
2017-06-24T19:06:30.100Z,11.97
2017-06-24T19:08:58.928Z,11.97
2017-06-24T19:11:27.042Z,13.30
2017-06-24T19:13:55.114Z,13.90
2017-06-24T19:16:23.187Z,14.90
2017-06-24T19:18:51.285Z,13.97
2017-06-24T19:21:20.146Z,15.10
2017-06-24T19:23:48.244Z,15.20
2017-06-24T19:26:17.074Z,14.20
2017-06-24T19:28:45.182Z,14.70
2017-06-24T19:31:13.291Z,15.40
2017-06-24T19:33:41.378Z,15.00
2017-06-24T19:36:10.190Z,13.70
2017-06-24T19:38:38.297Z,13.07
2017-06-24T19:41:07.141Z,13.13
2017-06-24T19:43:35.439Z,13.00
2017-06-24T19:46:03.507Z,13.03
2017-06-24T19:48:31.581Z,12.37
2017-06-24T19:50:59.653Z,13.60
2017-06-24T19:53:27.741Z,14.80
2017-06-24T19:55:56.583Z,13.90
2017-06-24T19:58:24.645Z,14.47
2017-06-24T20:00:52.758Z,13.80
2017-06-24T20:03:20.852Z,14.23
2017-06-24T20:05:48.895Z,14.57
2017-06-24T20:08:16.999Z,16.60
2017-06-24T20:10:45.855Z,15.17
2017-06-24T20:13:13.931Z,15.20
2017-06-24T20:15:42.026Z,16.43
2017-06-24T20:18:10.867Z,14.87
2017-06-24T20:20:38.948Z,15.70
2017-06-24T20:23:07.033Z,15.93
2017-06-24T20:25:35.110Z,15.03
2017-06-24T20:28:03.225Z,15.47
2017-06-24T20:30:31.315Z,15.50
2017-06-24T20:32:59.385Z,16.00
2017-06-24T20:35:27.488Z,17.00
2017-06-24T20:37:55.604Z,16.17
2017-06-24T20:40:24.421Z,18.10
2017-06-24T20:42:52.527Z,18.00
2017-06-24T20:45:20.779Z,16.93
2017-06-24T20:47:49.621Z,18.17
2017-06-24T20:50:17.691Z,17.60
2017-06-24T20:52:45.759Z,17.67
2017-06-24T20:55:13.845Z,16.80
2017-06-24T20:57:42.710Z,19.93
2017-06-24T21:00:10.770Z,16.70
2017-06-24T21:02:38.891Z,18.00
2017-06-24T21:05:07.719Z,17.30
2017-06-24T21:07:35.825Z,19.10
2017-06-24T21:10:03.907Z,18.03
2017-06-24T21:12:31.978Z,20.10
2017-06-24T21:15:00.047Z,17.30
2017-06-24T21:17:28.147Z,19.93
2017-06-24T21:19:56.967Z,17.93
2017-06-24T21:22:25.049Z,18.37
2017-06-24T21:24:53.139Z,19.13
2017-06-24T21:27:21.227Z,19.63
2017-06-24T21:29:49.284Z,20.57
2017-06-24T21:32:17.357Z,20.27
2017-06-24T21:34:45.435Z,20.00
2017-06-24T21:37:13.502Z,20.90
2017-06-24T21:39:41.594Z,21.83
2017-06-24T21:42:10.435Z,22.73
2017-06-24T21:44:39.350Z,22.77
2017-06-24T21:47:07.446Z,23.03
2017-06-24T21:49:35.529Z,22.50
2017-06-24T21:52:03.620Z,22.13
2017-06-24T21:54:31.694Z,22.00
2017-06-24T21:57:00.551Z,22.73
2017-06-24T21:59:28.638Z,22.17
2017-06-24T22:01:56.711Z,22.97
2017-06-24T22:04:24.787Z,23.10
2017-06-24T22:06:52.859Z,23.77
2017-06-24T22:09:20.932Z,23.17
2017-06-24T22:11:49.002Z,25.33
2017-06-24T22:14:17.084Z,26.50
2017-06-24T22:16:45.925Z,26.27
2017-06-24T22:19:13.994Z,25.80
2017-06-24T22:21:42.079Z,24.23
2017-06-24T22:24:10.152Z,26.47
2017-06-24T22:26:38.219Z,25.60
2017-06-24T22:29:06.318Z,25.17
2017-06-24T22:31:34.385Z,26.77
2017-06-24T22:34:02.467Z,25.00
2017-06-24T22:36:31.321Z,27.00
2017-06-24T22:38:59.396Z,24.53
2017-06-24T22:41:27.492Z,26.00
2017-06-24T22:43:55.559Z,26.70
2017-06-24T22:46:23.626Z,27.40
2017-06-24T22:48:51.697Z,24.40
2017-06-24T22:51:19.784Z,25.70
2017-06-24T22:53:47.859Z,26.40
2017-06-24T22:56:15.921Z,22.77
2017-06-24T22:58:44.031Z,25.03
2017-06-24T23:01:12.094Z,25.23
2017-06-24T23:03:40.171Z,26.73
2017-06-24T23:06:08.242Z,28.10
2017-06-24T23:08:36.314Z,22.63
2017-06-24T23:11:04.420Z,24.53
2017-06-24T23:13:32.512Z,25.97
2017-06-24T23:16:00.580Z,25.50
2017-06-24T23:18:28.675Z,26.40
2017-06-24T23:20:56.735Z,25.70
2017-06-24T23:23:24.794Z,23.93
2017-06-24T23:25:52.886Z,23.23
2017-06-24T23:28:20.984Z,22.17
2017-06-24T23:30:49.055Z,24.60
2017-06-24T23:33:17.147Z,24.90
2017-06-24T23:35:45.967Z,23.50
2017-06-24T23:38:14.039Z,22.10
2017-06-24T23:40:42.131Z,22.63
2017-06-24T23:43:10.204Z,23.13
2017-06-24T23:45:38.270Z,24.10
2017-06-24T23:48:06.351Z,24.00
2017-06-24T23:50:34.412Z,24.70
2017-06-24T23:53:02.479Z,24.00
2017-06-24T23:55:30.555Z,25.10
2017-06-24T23:57:58.623Z,26.90
